Hartland, MI (48353)

4:49 AM EDT on August 29, 2015 (GMT -0400)
The Lakes of Milford | | Change Station
CLOSE
Current Station
Personal Weather Station
Location: Milford Charter Township, MI
Elevation: 997 ft
Nearby Weather Stations

Elev 997 ft 42.60 °N, 83.65 °W | Updated 28 seconds ago

Mostly Cloudy
Mostly Cloudy
63.1 °F
Feels Like 63.1 °F
N
0.0
Wind Variable Wind from NNW
Gusts 0.0 mph

Today
High -- | Low -- °F
--% Chance of Precip.
Yesterday
High -- | Low -- °F
Precip. -- in
6:56 AM 8:14 PM
Full, 100% visible
Pressure 30.13 in
Visibility 7.0 miles
Clouds Clear
Dew Point 63 °F
Humidity 98%
Rainfall 0.00 in
Snow Depth Not available.
UV 0.0 out of 12
Pollen 10.00 out of 12
Air Quality Not available.
Flu Activity Not available.
METAR KOZW 290834Z AUTO 13003KT 7SM CLR 17/16 A3013 RMK AO2 T01700161
Pressure 30.13 in
Visibility 7.0 miles
Clouds Clear
Dew Point 63 °F
Humidity 98%
Rainfall 0.00 in
Snow Depth Not available.
UV 0.0 out of 12
Pollen 10.00 out of 12
Air Quality Not available.
Flu Activity Not available.
METAR KOZW 290834Z AUTO 13003KT 7SM CLR 17/16 A3013 RMK AO2 T01700161

10-Day Weather Forecast

×

Almanac

Astronomy

Aug. 29, 2015 Rise Set
Actual Time
Civil Twilight
Nautical Twilight
Astronomical Twilight
Moon
Length of Visible Light
Length of Day
Tomorrow will be .
, % of the Moon is Illuminated

Today's Extremes

State Highs State Lows

Community

WunderPhotos

Upload Photos

1,850,634 photos uploaded!

WunderBlogs® & News

Nearby

Air Quality

  Air Quality AQ Index Pollutant
Not available.

Snow Depth

Station Depth Elevation

Earthquake Activity

City Distance Mag. Time & Date
Minimum magnitude displayed is 2.5.

Coastal Water Temperatures

Place Temperature

Stations

Nearby Weather Stations

Station Location Temp. Windchill Dew Point Humidity Wind Precip. Elev Updated Type